createdAt,value
2023-05-03T00:01:53.592Z,7.25
2023-05-03T00:04:20.557Z,7.85
2023-05-03T00:06:47.273Z,8.50
2023-05-03T00:09:14.370Z,8.75
2023-05-03T00:11:41.077Z,8.05
2023-05-03T00:14:07.841Z,9.25
2023-05-03T00:16:35.206Z,8.43
2023-05-03T00:19:01.949Z,8.45
2023-05-03T00:21:28.717Z,7.80
2023-05-03T00:23:55.456Z,8.77
2023-05-03T00:26:22.548Z,7.60
2023-05-03T00:28:49.235Z,8.63
2023-05-03T00:31:15.902Z,8.60
2023-05-03T00:33:42.577Z,8.38
2023-05-03T00:36:10.365Z,9.38
2023-05-03T00:38:37.357Z,9.43
2023-05-03T00:41:04.897Z,9.45
2023-05-03T00:43:35.379Z,9.55
2023-05-03T00:46:15.214Z,10.30
2023-05-03T00:48:44.931Z,10.02
2023-05-03T00:51:12.521Z,11.02
2023-05-03T00:53:39.344Z,10.00
2023-05-03T00:56:06.968Z,10.45
2023-05-03T00:58:35.580Z,11.40
2023-05-03T01:01:02.734Z,10.75
2023-05-03T01:03:29.539Z,11.77
2023-05-03T01:06:18.087Z,11.52
2023-05-03T01:08:48.514Z,11.82
2023-05-03T01:11:25.460Z,11.52
2023-05-03T01:13:56.442Z,11.18
2023-05-03T01:16:40.955Z,10.00
2023-05-03T01:19:30.946Z,11.10
2023-05-03T01:22:11.214Z,9.88
2023-05-03T01:24:38.781Z,10.77
2023-05-03T01:27:05.438Z,10.55
2023-05-03T01:29:32.209Z,9.65
2023-05-03T01:32:01.966Z,11.15
2023-05-03T01:34:38.135Z,10.95
2023-05-03T01:37:05.046Z,9.68
2023-05-03T01:39:44.314Z,10.60
2023-05-03T01:42:11.055Z,9.48
2023-05-03T01:44:37.813Z,8.45
2023-05-03T01:47:04.540Z,8.52
2023-05-03T01:49:31.168Z,9.10
2023-05-03T01:51:57.829Z,7.90
2023-05-03T01:54:24.546Z,7.45
2023-05-03T01:56:51.174Z,8.07
2023-05-03T01:59:17.822Z,8.15
2023-05-03T02:01:44.550Z,9.45
2023-05-03T02:04:11.599Z,8.15
2023-05-03T02:06:38.397Z,7.75
2023-05-03T02:09:05.102Z,7.13
2023-05-03T02:11:31.795Z,7.95
2023-05-03T02:13:58.404Z,8.25
2023-05-03T02:16:25.209Z,8.30
2023-05-03T02:18:53.692Z,8.45
2023-05-03T02:21:20.484Z,8.25
2023-05-03T02:23:47.222Z,6.85
2023-05-03T02:26:14.069Z,8.68
2023-05-03T02:28:40.729Z,8.55
2023-05-03T02:31:07.608Z,8.77
2023-05-03T02:33:34.443Z,7.35
2023-05-03T02:36:01.266Z,8.07
2023-05-03T02:38:27.853Z,8.25
2023-05-03T02:40:54.468Z,7.28
2023-05-03T02:43:21.146Z,7.63
2023-05-03T02:45:48.098Z,7.50
2023-05-03T02:48:16.498Z,7.88
2023-05-03T02:50:43.327Z,7.53
2023-05-03T02:53:10.003Z,8.18
2023-05-03T02:55:36.677Z,7.78
2023-05-03T02:58:03.321Z,8.10
2023-05-03T03:00:29.961Z,8.07
2023-05-03T03:02:56.984Z,8.07
2023-05-03T03:05:23.766Z,6.88
2023-05-03T03:07:50.757Z,7.75
2023-05-03T03:10:17.598Z,8.20
2023-05-03T03:12:44.448Z,7.95
2023-05-03T03:15:11.475Z,7.38
2023-05-03T03:17:39.449Z,7.40
2023-05-03T03:20:07.728Z,8.27
2023-05-03T03:22:34.379Z,8.23
2023-05-03T03:25:01.012Z,8.77
2023-05-03T03:27:27.809Z,11.85
2023-05-03T03:29:54.587Z,8.65
2023-05-03T03:32:21.884Z,8.93
2023-05-03T03:34:48.554Z,10.60
2023-05-03T03:37:15.631Z,9.73
2023-05-03T03:39:42.415Z,12.05
2023-05-03T03:42:10.478Z,11.32
2023-05-03T03:44:37.314Z,10.93
2023-05-03T03:47:03.997Z,10.45
2023-05-03T03:49:30.802Z,12.20
2023-05-03T03:51:57.900Z,12.65
2023-05-03T03:54:24.936Z,15.82
2023-05-03T03:56:52.402Z,14.68
2023-05-03T03:59:19.170Z,15.10
2023-05-03T04:01:46.203Z,13.70
2023-05-03T04:04:13.237Z,14.38
2023-05-03T04:06:41.051Z,12.15
2023-05-03T04:09:07.688Z,15.02
2023-05-03T04:11:34.695Z,13.40
2023-05-03T04:14:02.646Z,11.77
2023-05-03T04:16:29.449Z,12.15
2023-05-03T04:18:56.295Z,13.10
2023-05-03T04:21:22.966Z,14.55
2023-05-03T04:23:49.683Z,12.73
2023-05-03T04:26:30.086Z,14.00
2023-05-03T04:28:59.162Z,15.47
2023-05-03T04:31:26.892Z,13.88
2023-05-03T04:33:58.150Z,14.95
2023-05-03T04:36:26.536Z,14.07
2023-05-03T04:38:53.324Z,15.35
2023-05-03T04:41:20.625Z,14.07
2023-05-03T04:43:47.343Z,16.15
2023-05-03T04:46:14.071Z,19.73
2023-05-03T04:48:40.903Z,16.83
2023-05-03T04:51:07.838Z,14.25
2023-05-03T04:53:34.602Z,13.40
2023-05-03T04:56:01.338Z,12.95
2023-05-03T04:58:28.124Z,14.93
2023-05-03T05:00:54.752Z,12.05
2023-05-03T05:03:21.436Z,13.98
2023-05-03T05:05:48.236Z,13.40
2023-05-03T05:08:14.899Z,13.27
2023-05-03T05:10:41.750Z,13.30
2023-05-03T05:13:08.534Z,13.45
2023-05-03T05:15:35.664Z,13.60
2023-05-03T05:18:02.496Z,12.52
2023-05-03T05:20:29.335Z,14.18
2023-05-03T05:22:56.379Z,13.32
2023-05-03T05:25:23.060Z,13.30
2023-05-03T05:27:49.765Z,13.70
2023-05-03T05:30:16.496Z,14.45
2023-05-03T05:32:43.343Z,14.27
2023-05-03T05:35:10.291Z,15.27
2023-05-03T05:37:36.937Z,14.82
2023-05-03T05:40:04.664Z,16.90
2023-05-03T05:42:31.780Z,17.67
2023-05-03T05:44:58.461Z,18.02
2023-05-03T05:47:28.363Z,16.48
2023-05-03T05:49:55.300Z,16.23
2023-05-03T05:52:22.237Z,17.08
2023-05-03T05:54:48.996Z,15.48
2023-05-03T05:57:15.655Z,16.55
2023-05-03T05:59:42.550Z,16.40
2023-05-03T06:02:16.960Z,15.98
2023-05-03T06:04:44.190Z,16.60
2023-05-03T06:07:10.928Z,16.08
2023-05-03T06:09:37.578Z,17.13
2023-05-03T06:12:04.438Z,17.75
2023-05-03T06:14:31.159Z,16.40
2023-05-03T06:16:59.212Z,15.93
2023-05-03T06:19:26.006Z,21.35
2023-05-03T06:21:52.763Z,18.17
2023-05-03T06:24:21.252Z,18.50
2023-05-03T06:26:48.820Z,18.75
2023-05-03T06:29:19.129Z,18.70
2023-05-03T06:31:45.865Z,16.33
2023-05-03T06:34:12.562Z,19.27
2023-05-03T06:36:39.253Z,16.40
2023-05-03T06:39:06.243Z,17.75
2023-05-03T06:41:33.926Z,15.30
2023-05-03T06:44:00.833Z,16.58
2023-05-03T06:46:27.922Z,17.08
2023-05-03T06:48:57.709Z,15.48
2023-05-03T06:51:28.158Z,16.48
2023-05-03T06:53:56.264Z,15.88
2023-05-03T06:56:23.322Z,17.00
2023-05-03T06:58:50.103Z,16.38
2023-05-03T07:01:19.023Z,16.23
2023-05-03T07:03:46.273Z,15.27
2023-05-03T07:06:13.344Z,15.63
2023-05-03T07:08:40.152Z,14.98
2023-05-03T07:11:06.861Z,15.13
2023-05-03T07:13:33.647Z,15.77
2023-05-03T07:16:03.414Z,16.50
2023-05-03T07:18:30.472Z,14.90
2023-05-03T07:20:57.243Z,17.05
2023-05-03T07:23:24.019Z,18.45
2023-05-03T07:25:51.564Z,17.08
2023-05-03T07:28:21.994Z,19.27
2023-05-03T07:30:49.687Z,15.98
2023-05-03T07:33:16.591Z,18.00
2023-05-03T07:35:46.498Z,16.95
2023-05-03T07:38:13.271Z,16.88
2023-05-03T07:40:41.601Z,18.17
2023-05-03T07:43:10.243Z,16.20
2023-05-03T07:45:37.496Z,16.90
2023-05-03T07:48:04.824Z,15.27
2023-05-03T07:50:31.548Z,15.52
2023-05-03T07:52:58.232Z,17.08
2023-05-03T07:55:26.639Z,16.58
2023-05-03T07:57:58.443Z,16.90
2023-05-03T08:00:26.769Z,16.07
2023-05-03T08:02:53.937Z,16.75
2023-05-03T08:05:21.433Z,15.95
2023-05-03T08:07:48.354Z,16.73
2023-05-03T08:10:15.277Z,17.20
2023-05-03T08:12:42.110Z,17.73
2023-05-03T08:15:09.090Z,18.77
2023-05-03T08:17:43.736Z,16.67
2023-05-03T08:20:11.251Z,15.02
2023-05-03T08:22:40.501Z,15.00
2023-05-03T08:25:07.652Z,16.42
2023-05-03T08:27:34.488Z,16.05
2023-05-03T08:30:01.810Z,18.48
2023-05-03T08:32:30.439Z,15.98
2023-05-03T08:34:57.376Z,15.25
2023-05-03T08:37:24.207Z,13.75
2023-05-03T08:39:51.253Z,15.60
2023-05-03T08:42:17.907Z,16.42
2023-05-03T08:44:48.382Z,16.58
2023-05-03T08:47:16.956Z,16.80
2023-05-03T08:49:44.451Z,17.67
2023-05-03T08:52:11.871Z,19.13
2023-05-03T08:54:38.919Z,17.90
2023-05-03T08:57:10.482Z,19.05
2023-05-03T08:59:48.452Z,17.10
2023-05-03T09:02:15.894Z,20.02
2023-05-03T09:04:42.937Z,19.58
2023-05-03T09:07:10.566Z,18.30
2023-05-03T09:09:37.361Z,16.08
2023-05-03T09:12:04.776Z,17.17
2023-05-03T09:14:31.475Z,17.20
2023-05-03T09:17:06.603Z,17.27
2023-05-03T09:19:33.183Z,16.10
2023-05-03T09:22:06.597Z,16.10
2023-05-03T09:24:33.245Z,19.42
2023-05-03T09:27:01.068Z,16.85
2023-05-03T09:29:30.826Z,17.65
2023-05-03T09:32:00.410Z,17.42
2023-05-03T09:34:27.249Z,16.73
2023-05-03T09:36:55.250Z,16.83
2023-05-03T09:39:21.908Z,16.73
2023-05-03T09:41:48.699Z,15.43
2023-05-03T09:44:16.168Z,17.83
2023-05-03T09:47:03.816Z,18.45
2023-05-03T09:49:33.056Z,14.43
2023-05-03T09:52:02.606Z,15.52
2023-05-03T09:54:33.174Z,14.65
2023-05-03T09:57:02.446Z,14.32
2023-05-03T09:59:29.254Z,14.60
2023-05-03T10:01:58.756Z,15.73
2023-05-03T10:04:27.972Z,14.05
2023-05-03T10:07:00.587Z,13.85
2023-05-03T10:09:32.603Z,15.15
2023-05-03T10:12:00.368Z,16.02
2023-05-03T10:14:27.053Z,17.50
2023-05-03T10:16:59.792Z,16.75
2023-05-03T10:19:34.904Z,15.88
2023-05-03T10:22:07.212Z,14.75
2023-05-03T10:24:34.915Z,15.40
2023-05-03T10:27:01.866Z,15.30
2023-05-03T10:32:33.581Z,15.70
2023-05-03T10:35:03.709Z,16.88
2023-05-03T10:37:32.087Z,16.05
2023-05-03T10:40:06.514Z,15.98
2023-05-03T10:42:33.670Z,16.40
2023-05-03T10:45:01.832Z,16.42
2023-05-03T10:47:28.768Z,16.02
2023-05-03T10:52:54.727Z,15.55
2023-05-03T10:55:22.289Z,16.83
2023-05-03T10:57:49.142Z,14.88
2023-05-03T11:00:23.254Z,17.02
2023-05-03T11:03:26.388Z,16.50
2023-05-03T11:08:22.345Z,16.38
2023-05-03T11:10:51.275Z,16.55
2023-05-03T11:13:20.808Z,15.32
2023-05-03T11:15:48.387Z,17.00
2023-05-03T11:18:15.395Z,14.95
2023-05-03T11:20:42.049Z,15.20
2023-05-03T11:23:08.775Z,14.75
2023-05-03T11:25:35.636Z,15.30
2023-05-03T11:28:02.687Z,16.30
2023-05-03T11:30:29.902Z,15.15
2023-05-03T11:32:56.761Z,15.98
2023-05-03T11:35:25.828Z,18.67
2023-05-03T11:37:52.898Z,16.83
2023-05-03T11:40:19.651Z,15.55
2023-05-03T11:42:54.857Z,17.35
2023-05-03T11:45:23.356Z,14.77
2023-05-03T11:47:50.239Z,14.27
2023-05-03T11:50:17.494Z,15.40
2023-05-03T11:52:44.663Z,14.65
2023-05-03T11:55:12.042Z,15.60
2023-05-03T11:57:38.997Z,15.82
2023-05-03T12:00:14.645Z,16.33
2023-05-03T12:02:42.310Z,15.18
2023-05-03T12:05:10.170Z,16.10
2023-05-03T12:07:38.630Z,13.90
2023-05-03T12:10:19.196Z,14.70
2023-05-03T12:12:56.939Z,13.60
2023-05-03T12:15:30.087Z,15.05
2023-05-03T12:18:00.260Z,13.10
2023-05-03T12:23:03.871Z,13.18
2023-05-03T12:25:33.953Z,15.38
2023-05-03T12:30:33.982Z,12.20
2023-05-03T12:33:04.308Z,11.88
2023-05-03T12:35:34.139Z,13.30
2023-05-03T12:38:03.437Z,14.63
2023-05-03T12:40:34.154Z,12.05
2023-05-03T12:43:03.337Z,13.15
2023-05-03T12:45:34.579Z,11.15
2023-05-03T12:48:02.978Z,11.68
2023-05-03T12:50:31.961Z,10.18
2023-05-03T12:53:02.228Z,10.43
2023-05-03T12:55:34.624Z,12.18
2023-05-03T13:00:35.996Z,12.43
2023-05-03T13:05:36.214Z,10.80
2023-05-03T13:08:09.030Z,10.60
2023-05-03T13:10:37.531Z,10.60
2023-05-03T13:13:04.348Z,10.55
2023-05-03T13:15:31.208Z,11.77
2023-05-03T13:18:01.542Z,12.55
2023-05-03T13:20:28.929Z,11.52
2023-05-03T13:22:55.933Z,8.18
2023-05-03T13:25:22.678Z,7.82
2023-05-03T13:27:52.253Z,9.35
2023-05-03T13:30:21.493Z,11.93
2023-05-03T13:32:48.322Z,10.68
2023-05-03T13:35:15.174Z,9.07
2023-05-03T13:37:41.915Z,9.27
2023-05-03T13:40:10.008Z,10.13
2023-05-03T13:42:36.674Z,11.43
2023-05-03T13:45:04.729Z,12.57
2023-05-03T13:47:47.211Z,13.38
2023-05-03T13:50:18.922Z,12.70
2023-05-03T13:52:45.938Z,14.00
2023-05-03T13:55:12.654Z,10.88
2023-05-03T13:57:39.271Z,10.10
2023-05-03T14:00:07.215Z,10.38
2023-05-03T14:02:34.384Z,8.43
2023-05-03T14:05:01.219Z,8.85
2023-05-03T14:07:28.046Z,9.10
2023-05-03T14:09:54.884Z,7.85
2023-05-03T14:12:21.571Z,7.15
2023-05-03T14:14:48.260Z,7.43
2023-05-03T14:17:14.894Z,10.15
2023-05-03T14:19:41.710Z,7.43
2023-05-03T14:22:08.521Z,6.60
2023-05-03T14:24:35.254Z,5.95
2023-05-03T14:27:02.946Z,5.63
2023-05-03T14:29:29.717Z,6.15
2023-05-03T14:31:57.341Z,8.52
2023-05-03T14:34:24.236Z,7.13
2023-05-03T14:36:52.457Z,6.28
2023-05-03T14:39:19.424Z,7.68
2023-05-03T14:41:47.990Z,8.05
2023-05-03T14:44:17.740Z,6.63
2023-05-03T14:46:44.548Z,6.65
2023-05-03T14:49:11.437Z,4.72
2023-05-03T14:51:38.260Z,6.55
2023-05-03T14:54:05.013Z,6.75
2023-05-03T14:56:32.306Z,6.70
2023-05-03T14:58:59.452Z,5.43
2023-05-03T15:01:26.796Z,6.63
2023-05-03T15:03:53.694Z,7.43
2023-05-03T15:06:25.518Z,7.18
2023-05-03T15:08:52.485Z,7.47
2023-05-03T15:11:19.222Z,10.32
2023-05-03T15:13:46.164Z,8.52
2023-05-03T15:16:12.910Z,6.78
2023-05-03T15:18:39.580Z,6.47
2023-05-03T15:21:07.439Z,6.75
2023-05-03T15:23:34.259Z,6.95
2023-05-03T15:26:01.516Z,7.20
2023-05-03T15:28:28.198Z,11.93
2023-05-03T15:30:54.960Z,6.57
2023-05-03T15:33:21.776Z,10.82
2023-05-03T15:35:48.393Z,11.10
2023-05-03T15:38:15.858Z,8.05
2023-05-03T15:40:42.552Z,11.07
2023-05-03T15:43:09.289Z,9.82
2023-05-03T15:45:36.099Z,9.45
2023-05-03T15:48:04.563Z,8.50
2023-05-03T15:50:31.300Z,9.50
2023-05-03T15:52:58.267Z,7.70
2023-05-03T15:55:28.007Z,8.05
2023-05-03T15:57:56.994Z,6.95
2023-05-03T16:00:25.883Z,7.35
2023-05-03T16:02:53.050Z,8.38
2023-05-03T16:05:20.115Z,7.40
2023-05-03T16:07:47.118Z,10.95
2023-05-03T16:10:14.924Z,9.18
2023-05-03T16:12:42.836Z,8.43
2023-05-03T16:15:10.216Z,9.73
2023-05-03T16:17:37.034Z,11.13
2023-05-03T16:20:05.674Z,9.43
2023-05-03T16:22:32.648Z,10.40
2023-05-03T16:24:59.551Z,11.00
2023-05-03T16:27:26.453Z,9.60
2023-05-03T16:29:54.230Z,9.95
2023-05-03T16:32:20.955Z,11.57
2023-05-03T16:34:48.473Z,9.13
2023-05-03T16:37:17.111Z,11.13
2023-05-03T16:39:43.768Z,10.98
2023-05-03T16:42:10.548Z,12.25
2023-05-03T16:44:37.501Z,10.57
2023-05-03T16:47:05.073Z,9.85
2023-05-03T16:49:34.158Z,9.68
2023-05-03T16:52:01.121Z,9.57
2023-05-03T16:54:27.955Z,9.13
2023-05-03T16:56:54.673Z,7.75
2023-05-03T16:59:21.377Z,8.60
2023-05-03T17:01:48.609Z,9.40
2023-05-03T17:04:15.261Z,8.82
2023-05-03T17:06:41.857Z,12.15
2023-05-03T17:09:09.911Z,8.75
2023-05-03T17:11:36.658Z,7.18
2023-05-03T17:14:03.405Z,9.68
2023-05-03T17:16:30.210Z,8.20
2023-05-03T17:18:56.965Z,8.57
2023-05-03T17:21:24.869Z,7.90
2023-05-03T17:23:51.579Z,7.70
2023-05-03T17:26:21.158Z,10.13
2023-05-03T17:28:48.497Z,11.30
2023-05-03T17:31:15.179Z,8.38
2023-05-03T17:33:42.012Z,7.72
2023-05-03T17:36:08.949Z,9.05
2023-05-03T17:38:36.367Z,10.55
2023-05-03T17:41:04.870Z,11.23
2023-05-03T17:43:31.578Z,9.50
2023-05-03T17:46:06.448Z,11.05
2023-05-03T17:48:33.134Z,12.35
2023-05-03T17:50:59.823Z,9.13
2023-05-03T17:53:26.493Z,8.38
2023-05-03T17:55:53.708Z,9.95
2023-05-03T17:58:20.906Z,8.85
2023-05-03T18:00:48.769Z,8.88
2023-05-03T18:03:16.911Z,7.32
2023-05-03T18:05:44.847Z,10.48
2023-05-03T18:08:12.360Z,7.20
2023-05-03T18:10:41.862Z,10.05
2023-05-03T18:13:10.210Z,9.27
2023-05-03T18:15:41.326Z,7.95
2023-05-03T18:18:08.691Z,8.25
2023-05-03T18:20:35.927Z,7.35
2023-05-03T18:23:02.698Z,8.18
2023-05-03T18:25:29.399Z,7.00
2023-05-03T18:27:57.214Z,6.78
2023-05-03T18:30:26.279Z,7.80
2023-05-03T18:32:53.115Z,6.25
2023-05-03T18:35:19.845Z,8.40
2023-05-03T18:37:46.844Z,7.60
2023-05-03T18:40:13.570Z,8.98
2023-05-03T18:42:40.221Z,8.77
2023-05-03T18:45:07.454Z,9.50
2023-05-03T18:47:34.147Z,9.20
2023-05-03T18:50:00.821Z,8.65
2023-05-03T18:52:27.438Z,8.18
2023-05-03T18:54:54.435Z,9.90
2023-05-03T18:57:21.143Z,9.00
2023-05-03T18:59:59.397Z,9.27
2023-05-03T19:02:30.470Z,10.98
2023-05-03T19:04:57.747Z,18.83
2023-05-03T19:07:24.512Z,16.02
2023-05-03T19:09:55.146Z,12.48
2023-05-03T19:12:22.260Z,14.18
2023-05-03T19:14:49.174Z,17.50
2023-05-03T19:17:15.931Z,15.98
2023-05-03T19:19:42.566Z,14.18
2023-05-03T19:22:09.288Z,11.43
2023-05-03T19:24:36.184Z,13.45
2023-05-03T19:27:04.431Z,13.45
2023-05-03T19:29:31.241Z,15.68
2023-05-03T19:31:58.001Z,14.80
2023-05-03T19:34:24.688Z,14.52
2023-05-03T19:36:51.417Z,13.63
2023-05-03T19:39:18.043Z,14.50
2023-05-03T19:41:44.808Z,15.15
2023-05-03T19:44:11.946Z,14.90
2023-05-03T19:46:38.830Z,15.52
2023-05-03T19:49:05.745Z,16.17
2023-05-03T19:51:33.075Z,17.65
2023-05-03T19:54:02.995Z,17.58
2023-05-03T19:56:29.720Z,17.60
2023-05-03T19:58:57.117Z,17.33
2023-05-03T20:01:23.896Z,16.13
2023-05-03T20:03:53.265Z,15.10
2023-05-03T20:06:20.328Z,16.30
2023-05-03T20:08:48.084Z,14.80
2023-05-03T20:11:14.716Z,16.20
2023-05-03T20:13:41.614Z,13.98
2023-05-03T20:16:08.642Z,14.98
2023-05-03T20:18:35.393Z,15.80
2023-05-03T20:21:03.392Z,14.93
2023-05-03T20:23:30.576Z,13.93
2023-05-03T20:25:57.292Z,13.43
2023-05-03T20:28:24.219Z,15.02
2023-05-03T20:30:51.263Z,15.55
2023-05-03T20:33:17.955Z,15.55
2023-05-03T20:35:44.658Z,15.60
2023-05-03T20:38:11.350Z,14.40
2023-05-03T20:40:38.289Z,12.95
2023-05-03T20:43:04.884Z,15.73
2023-05-03T20:45:31.673Z,16.52
2023-05-03T20:47:58.352Z,13.93
2023-05-03T20:50:25.019Z,15.65
2023-05-03T20:52:51.692Z,16.42
2023-05-03T20:55:18.638Z,13.80
2023-05-03T20:57:45.403Z,14.05
2023-05-03T21:00:12.659Z,13.48
2023-05-03T21:02:39.549Z,13.90
2023-05-03T21:05:06.524Z,14.15
2023-05-03T21:07:33.253Z,14.18
2023-05-03T21:10:00.248Z,11.77
2023-05-03T21:12:27.072Z,14.30
2023-05-03T21:14:53.711Z,14.77
2023-05-03T21:17:20.364Z,15.20
2023-05-03T21:19:47.032Z,14.63
2023-05-03T21:22:13.727Z,13.85
2023-05-03T21:24:40.433Z,14.23
2023-05-03T21:27:07.071Z,14.25
2023-05-03T21:29:33.745Z,13.18
2023-05-03T21:32:00.483Z,13.02
2023-05-03T21:34:27.276Z,13.45
2023-05-03T21:36:54.061Z,13.73
2023-05-03T21:39:21.400Z,15.45
2023-05-03T21:41:48.252Z,14.55
2023-05-03T21:44:14.890Z,14.73
2023-05-03T21:46:42.939Z,12.40
2023-05-03T21:49:09.745Z,14.52
2023-05-03T21:51:36.682Z,14.82
2023-05-03T21:54:03.384Z,13.63
2023-05-03T21:56:30.040Z,12.27
2023-05-03T21:58:56.676Z,10.88
2023-05-03T22:01:23.351Z,13.05
2023-05-03T22:03:50.260Z,14.55
2023-05-03T22:06:17.106Z,14.00
2023-05-03T22:08:43.811Z,12.52
2023-05-03T22:11:11.367Z,13.95
2023-05-03T22:13:49.696Z,12.73
2023-05-03T22:16:24.955Z,12.38
2023-05-03T22:18:51.684Z,13.45
2023-05-03T22:21:18.544Z,15.20
2023-05-03T22:23:45.248Z,13.23
2023-05-03T22:26:12.509Z,12.68
2023-05-03T22:28:39.177Z,13.52
2023-05-03T22:31:06.203Z,12.02
2023-05-03T22:33:33.076Z,11.98
2023-05-03T22:35:59.759Z,12.13
2023-05-03T22:38:26.672Z,14.30
2023-05-03T22:40:53.347Z,13.90
2023-05-03T22:43:20.004Z,11.13
2023-05-03T22:45:47.061Z,11.45
2023-05-03T22:48:13.759Z,12.77
2023-05-03T22:50:40.387Z,14.63
2023-05-03T22:53:07.109Z,11.43
2023-05-03T22:55:33.744Z,13.10
2023-05-03T22:58:00.411Z,11.90
2023-05-03T23:00:27.112Z,11.90
2023-05-03T23:02:53.977Z,13.48
2023-05-03T23:05:21.403Z,12.88
2023-05-03T23:07:48.599Z,15.30
2023-05-03T23:10:15.317Z,15.68
2023-05-03T23:12:42.096Z,14.52
2023-05-03T23:15:09.130Z,13.82
2023-05-03T23:17:35.895Z,15.70
2023-05-03T23:20:03.094Z,15.63
2023-05-03T23:22:30.011Z,14.27
2023-05-03T23:24:56.650Z,16.88
2023-05-03T23:27:23.285Z,16.65
2023-05-03T23:29:50.858Z,14.18
2023-05-03T23:32:18.441Z,14.93
2023-05-03T23:34:45.428Z,15.32
2023-05-03T23:37:12.034Z,18.10
2023-05-03T23:39:43.098Z,15.82
2023-05-03T23:42:10.124Z,16.13
2023-05-03T23:44:53.165Z,13.18
2023-05-03T23:47:21.590Z,12.80
2023-05-03T23:49:48.306Z,14.90
2023-05-03T23:52:16.833Z,13.30
2023-05-03T23:54:43.597Z,12.00
2023-05-03T23:57:10.335Z,12.93
2023-05-03T23:59:37.179Z,12.20
